createdAt,value
2023-01-13T00:02:03.149Z,22.68
2023-01-13T00:04:29.511Z,22.68
2023-01-13T00:06:55.806Z,22.67
2023-01-13T00:09:22.250Z,22.68
2023-01-13T00:11:48.598Z,22.68
2023-01-13T00:14:14.956Z,22.66
2023-01-13T00:16:41.421Z,22.65
2023-01-13T00:19:07.749Z,22.60
2023-01-13T00:21:34.080Z,22.56
2023-01-13T00:24:00.447Z,22.62
2023-01-13T00:26:26.924Z,22.61
2023-01-13T00:28:53.272Z,22.62
2023-01-13T00:31:19.725Z,22.63
2023-01-13T00:33:46.073Z,22.61
2023-01-13T00:36:14.387Z,22.61
2023-01-13T00:38:38.739Z,22.64
2023-01-13T00:41:05.084Z,22.58
2023-01-13T00:43:31.449Z,22.58
2023-01-13T00:45:57.907Z,22.61
2023-01-13T00:48:24.256Z,22.62
2023-01-13T00:50:50.584Z,22.61
2023-01-13T00:53:16.971Z,22.60
2023-01-13T00:55:43.353Z,22.56
2023-01-13T00:58:09.722Z,22.57
2023-01-13T01:00:36.211Z,22.61
2023-01-13T01:03:02.488Z,22.54
2023-01-13T01:05:28.852Z,22.51
2023-01-13T01:07:55.226Z,22.54
2023-01-13T01:10:21.654Z,22.56
2023-01-13T01:12:47.976Z,22.57
2023-01-13T01:15:14.342Z,22.57
2023-01-13T01:17:40.682Z,22.53
2023-01-13T01:20:07.035Z,22.46
2023-01-13T01:22:33.448Z,22.44
2023-01-13T01:24:59.777Z,22.43
2023-01-13T01:27:26.175Z,22.50
2023-01-13T01:29:52.583Z,22.53
2023-01-13T01:32:19.030Z,22.53
2023-01-13T01:34:45.430Z,22.54
2023-01-13T01:37:11.829Z,22.47
2023-01-13T01:39:38.242Z,22.43
2023-01-13T01:42:04.595Z,22.46
2023-01-13T01:44:30.924Z,22.50
2023-01-13T01:46:57.343Z,22.50
2023-01-13T01:49:23.637Z,22.50
2023-01-13T01:51:50.065Z,22.48
2023-01-13T01:54:16.404Z,22.51
2023-01-13T01:56:42.770Z,22.50
2023-01-13T01:59:09.112Z,22.53
2023-01-13T02:01:35.535Z,22.42
2023-01-13T02:04:01.794Z,22.42
2023-01-13T02:06:28.147Z,22.47
2023-01-13T02:08:54.483Z,22.49
2023-01-13T02:11:20.829Z,22.47
2023-01-13T02:13:47.200Z,22.48
2023-01-13T02:16:13.567Z,22.49
2023-01-13T02:18:39.882Z,22.48
2023-01-13T02:21:06.219Z,22.49
2023-01-13T02:23:32.600Z,22.48
2023-01-13T02:25:58.957Z,22.44
2023-01-13T02:28:25.312Z,22.38
2023-01-13T02:30:51.680Z,22.37
2023-01-13T02:33:18.016Z,22.40
2023-01-13T02:35:44.384Z,22.46
2023-01-13T02:38:10.799Z,22.47
2023-01-13T02:40:37.157Z,22.43
2023-01-13T02:43:03.533Z,22.43
2023-01-13T02:45:29.949Z,22.44
2023-01-13T02:47:56.245Z,22.37
2023-01-13T02:50:22.644Z,22.35
2023-01-13T02:52:48.977Z,22.33
2023-01-13T02:55:15.319Z,22.35
2023-01-13T02:57:41.651Z,22.37
2023-01-13T03:00:08.021Z,22.42
2023-01-13T03:02:34.492Z,22.35
2023-01-13T03:05:00.858Z,22.35
2023-01-13T03:07:27.189Z,22.36
2023-01-13T03:09:53.631Z,22.36
2023-01-13T03:12:19.983Z,22.37
2023-01-13T03:14:46.491Z,22.35
2023-01-13T03:17:12.859Z,22.35
2023-01-13T03:19:39.180Z,22.38
2023-01-13T03:22:05.566Z,22.36
2023-01-13T03:24:31.950Z,22.40
2023-01-13T03:26:58.354Z,22.46
2023-01-13T03:29:24.745Z,22.41
2023-01-13T03:31:51.141Z,22.37
2023-01-13T03:34:17.524Z,22.43
2023-01-13T03:36:43.899Z,22.39
2023-01-13T03:39:10.244Z,22.43
2023-01-13T03:41:39.418Z,22.42
2023-01-13T03:44:05.852Z,22.39
2023-01-13T03:46:32.286Z,22.38
2023-01-13T03:48:58.606Z,22.39
2023-01-13T03:51:25.009Z,22.38
2023-01-13T03:53:51.339Z,22.39
2023-01-13T03:56:17.756Z,22.38
2023-01-13T03:58:44.189Z,22.39
2023-01-13T04:01:10.707Z,22.40
2023-01-13T04:03:37.078Z,22.40
2023-01-13T04:06:03.340Z,22.44
2023-01-13T04:08:29.719Z,22.50
2023-01-13T04:10:56.192Z,22.52
2023-01-13T04:13:22.666Z,22.48
2023-01-13T04:15:49.127Z,22.52
2023-01-13T04:18:15.511Z,22.51
2023-01-13T04:20:41.939Z,22.51
2023-01-13T04:23:08.281Z,22.51
2023-01-13T04:25:34.669Z,22.44
2023-01-13T04:28:01.016Z,22.52
2023-01-13T04:30:27.425Z,22.57
2023-01-13T04:32:53.768Z,22.55
2023-01-13T04:35:20.170Z,22.54
2023-01-13T04:37:46.562Z,22.55
2023-01-13T04:40:13.048Z,22.54
2023-01-13T04:42:39.362Z,22.55
2023-01-13T04:45:05.746Z,22.50
2023-01-13T04:47:32.080Z,22.55
2023-01-13T04:49:58.493Z,22.57
2023-01-13T04:52:24.854Z,22.57
2023-01-13T04:54:51.240Z,22.55
2023-01-13T04:57:18.540Z,22.50
2023-01-13T04:59:45.184Z,22.50
2023-01-13T05:02:10.411Z,22.51
2023-01-13T05:04:36.859Z,22.54
2023-01-13T05:07:03.176Z,22.63
2023-01-13T05:09:29.594Z,22.66
2023-01-13T05:11:55.924Z,22.58
2023-01-13T05:14:23.669Z,22.57
2023-01-13T05:16:48.744Z,22.58
2023-01-13T05:19:15.270Z,22.67
2023-01-13T05:21:41.596Z,22.71
2023-01-13T05:24:07.975Z,22.73
2023-01-13T05:26:34.358Z,22.73
2023-01-13T05:29:00.789Z,22.85
2023-01-13T05:31:26.980Z,22.76
2023-01-13T05:33:53.422Z,22.80
2023-01-13T05:36:19.747Z,22.83
2023-01-13T05:38:46.166Z,22.84
2023-01-13T05:41:12.520Z,22.90
2023-01-13T05:43:38.892Z,22.97
2023-01-13T05:46:05.347Z,23.01
2023-01-13T05:48:31.819Z,22.95
2023-01-13T05:50:58.139Z,22.99
2023-01-13T05:53:24.595Z,23.00
2023-01-13T05:55:50.934Z,23.02
2023-01-13T05:58:17.367Z,23.09
2023-01-13T06:00:43.703Z,23.14
2023-01-13T06:03:10.220Z,23.18
2023-01-13T06:05:36.514Z,23.24
2023-01-13T06:08:02.894Z,23.39
2023-01-13T06:10:29.387Z,23.45
2023-01-13T06:12:55.761Z,23.50
2023-01-13T06:15:22.152Z,23.51
2023-01-13T06:17:48.564Z,23.54
2023-01-13T06:20:14.902Z,23.55
2023-01-13T06:22:41.381Z,23.59
2023-01-13T06:25:07.734Z,23.64
2023-01-13T06:27:34.117Z,23.64
2023-01-13T06:30:00.503Z,23.66
2023-01-13T06:32:26.945Z,23.67
2023-01-13T06:34:53.288Z,23.69
2023-01-13T06:37:19.692Z,23.69
2023-01-13T06:39:46.031Z,23.73
2023-01-13T06:42:12.414Z,23.75
2023-01-13T06:44:38.798Z,23.71
2023-01-13T06:47:05.250Z,23.83
2023-01-13T06:49:31.627Z,23.89
2023-01-13T06:51:58.029Z,23.95
2023-01-13T06:54:25.343Z,23.90
2023-01-13T06:56:50.841Z,23.97
2023-01-13T06:59:17.243Z,24.00
2023-01-13T07:01:43.810Z,24.04
2023-01-13T07:04:10.114Z,24.04
2023-01-13T07:06:36.592Z,24.04
2023-01-13T07:09:03.079Z,23.96
2023-01-13T07:11:29.326Z,23.98
2023-01-13T07:13:55.655Z,24.02
2023-01-13T07:16:22.253Z,24.01
2023-01-13T07:18:48.571Z,23.99
2023-01-13T07:21:15.024Z,24.03
2023-01-13T07:23:41.474Z,24.01
2023-01-13T07:26:07.913Z,24.03
2023-01-13T07:28:35.573Z,23.99
2023-01-13T07:31:00.671Z,23.95
2023-01-13T07:33:27.024Z,23.90
2023-01-13T07:35:53.427Z,23.92
2023-01-13T07:38:19.821Z,23.97
2023-01-13T07:40:46.201Z,24.05
2023-01-13T07:43:12.557Z,24.05
2023-01-13T07:45:38.978Z,24.16
2023-01-13T07:48:05.449Z,24.18
2023-01-13T07:50:31.848Z,24.25
2023-01-13T07:52:58.183Z,24.19
2023-01-13T07:55:24.671Z,24.28
2023-01-13T07:57:50.989Z,24.30
2023-01-13T08:00:17.390Z,24.31
2023-01-13T08:02:43.808Z,24.34
2023-01-13T08:05:10.154Z,24.36
2023-01-13T08:07:36.629Z,24.40
2023-01-13T08:10:02.985Z,24.40
2023-01-13T08:12:29.342Z,24.41
2023-01-13T08:14:55.783Z,24.33
2023-01-13T08:17:22.172Z,24.42
2023-01-13T08:19:48.663Z,24.41
2023-01-13T08:22:15.004Z,24.39
2023-01-13T08:24:41.442Z,24.44
2023-01-13T08:27:07.780Z,24.44
2023-01-13T08:29:34.207Z,24.41
2023-01-13T08:32:00.525Z,24.48
2023-01-13T08:34:26.949Z,24.45
2023-01-13T08:36:53.289Z,24.43
2023-01-13T08:39:19.666Z,24.43
2023-01-13T08:41:46.039Z,24.40
2023-01-13T08:44:12.437Z,24.43
2023-01-13T08:46:38.857Z,24.41
2023-01-13T08:49:05.211Z,24.48
2023-01-13T08:51:31.680Z,24.50
2023-01-13T08:53:58.071Z,24.53
2023-01-13T08:56:24.441Z,24.58
2023-01-13T08:58:50.824Z,24.58
2023-01-13T09:01:17.511Z,24.57
2023-01-13T09:03:43.673Z,24.49
2023-01-13T09:06:10.098Z,24.51
2023-01-13T09:08:36.459Z,24.60
2023-01-13T09:11:02.985Z,24.65
2023-01-13T09:13:29.335Z,24.65
2023-01-13T09:15:55.787Z,24.62
2023-01-13T09:18:24.869Z,24.62
2023-01-13T09:20:51.097Z,24.62
2023-01-13T09:23:17.444Z,24.68
2023-01-13T09:25:43.855Z,24.71
2023-01-13T09:28:10.218Z,24.73
2023-01-13T09:30:36.667Z,24.77
2023-01-13T09:33:03.027Z,24.76
2023-01-13T09:35:29.428Z,24.74
2023-01-13T09:37:55.776Z,24.78
2023-01-13T09:40:22.372Z,24.79
2023-01-13T09:42:48.688Z,24.76
2023-01-13T09:45:15.076Z,24.74
2023-01-13T09:47:41.415Z,24.75
2023-01-13T09:50:07.920Z,24.76
2023-01-13T09:52:34.263Z,24.76
2023-01-13T09:55:00.695Z,24.65
2023-01-13T09:57:27.080Z,24.60
2023-01-13T09:59:53.474Z,24.65
2023-01-13T10:02:19.827Z,24.66
2023-01-13T10:04:46.252Z,24.72
2023-01-13T10:07:12.606Z,24.73
2023-01-13T10:09:39.052Z,24.74
2023-01-13T10:12:05.397Z,24.76
2023-01-13T10:14:31.819Z,24.70
2023-01-13T10:16:58.188Z,24.77
2023-01-13T10:19:24.705Z,24.77
2023-01-13T10:21:51.128Z,24.82
2023-01-13T10:24:17.499Z,24.82
2023-01-13T10:26:43.864Z,24.86
2023-01-13T10:29:10.260Z,24.84
2023-01-13T10:31:36.631Z,24.83
2023-01-13T10:34:03.204Z,24.86
2023-01-13T10:36:29.595Z,24.89
2023-01-13T10:38:57.833Z,24.91
2023-01-13T10:41:24.551Z,24.91
2023-01-13T10:43:50.979Z,24.95
2023-01-13T10:46:17.443Z,25.06
2023-01-13T10:48:43.759Z,25.02
2023-01-13T10:51:10.093Z,25.00
2023-01-13T10:53:36.515Z,25.04
2023-01-13T10:56:02.871Z,24.98
2023-01-13T10:58:29.283Z,25.04
2023-01-13T11:00:55.655Z,25.05
2023-01-13T11:03:22.005Z,25.44
2023-01-13T11:05:48.379Z,25.37
2023-01-13T11:08:14.781Z,25.28
2023-01-13T11:10:41.112Z,25.24
2023-01-13T11:13:07.534Z,25.22
2023-01-13T11:15:33.909Z,25.28
2023-01-13T11:18:00.382Z,25.31
2023-01-13T11:20:26.779Z,25.42
2023-01-13T11:22:53.270Z,25.34
2023-01-13T11:25:19.607Z,25.09
2023-01-13T11:27:46.039Z,25.13
2023-01-13T11:30:15.157Z,25.03
2023-01-13T11:32:41.644Z,25.00
2023-01-13T11:35:08.050Z,25.22
2023-01-13T11:37:34.418Z,25.05
2023-01-13T11:40:00.883Z,24.97
2023-01-13T11:42:27.270Z,25.10
2023-01-13T11:44:53.585Z,25.05
2023-01-13T11:47:19.969Z,24.84
2023-01-13T11:49:46.496Z,24.87
2023-01-13T11:52:12.993Z,24.88
2023-01-13T11:54:39.378Z,24.97
2023-01-13T11:57:05.752Z,25.01
2023-01-13T11:59:32.114Z,24.95
2023-01-13T12:01:58.644Z,24.87
2023-01-13T12:04:24.955Z,24.86
2023-01-13T12:06:51.458Z,24.82
2023-01-13T12:09:17.822Z,24.86
2023-01-13T12:11:44.229Z,24.90
2023-01-13T12:14:11.835Z,24.89
2023-01-13T12:16:37.060Z,24.86
2023-01-13T12:19:03.429Z,24.74
2023-01-13T12:21:29.847Z,24.78
2023-01-13T12:23:56.185Z,24.80
2023-01-13T12:26:22.651Z,24.84
2023-01-13T12:28:49.133Z,24.84
2023-01-13T12:31:15.470Z,24.80
2023-01-13T12:33:41.801Z,24.84
2023-01-13T12:36:08.174Z,24.77
2023-01-13T12:38:34.582Z,24.83
2023-01-13T12:41:00.950Z,24.89
2023-01-13T12:43:27.275Z,24.88
2023-01-13T12:45:53.826Z,25.00
2023-01-13T12:48:20.119Z,24.98
2023-01-13T12:50:46.536Z,24.92
2023-01-13T12:53:12.957Z,25.04
2023-01-13T12:55:39.353Z,24.89
2023-01-13T12:58:05.714Z,24.79
2023-01-13T13:00:32.072Z,25.08
2023-01-13T13:02:59.675Z,25.09
2023-01-13T13:05:24.831Z,25.04
2023-01-13T13:07:51.158Z,25.10
2023-01-13T13:10:17.546Z,25.08
2023-01-13T13:12:44.069Z,25.05
2023-01-13T13:15:10.455Z,25.03
2023-01-13T13:17:36.774Z,25.05
2023-01-13T13:20:03.157Z,24.90
2023-01-13T13:22:29.603Z,25.00
2023-01-13T13:24:55.966Z,24.98
2023-01-13T13:27:22.313Z,25.01
2023-01-13T13:29:48.769Z,25.00
2023-01-13T13:32:15.180Z,24.82
2023-01-13T13:34:41.561Z,24.82
2023-01-13T13:37:07.895Z,24.93
2023-01-13T13:39:34.281Z,24.88
2023-01-13T13:42:00.646Z,24.89
2023-01-13T13:44:27.029Z,24.94
2023-01-13T13:46:53.499Z,24.86
2023-01-13T13:49:19.984Z,24.89
2023-01-13T13:51:46.420Z,24.88
2023-01-13T13:54:12.694Z,24.94
2023-01-13T13:56:39.078Z,24.92
2023-01-13T13:59:05.531Z,24.86
2023-01-13T14:01:31.941Z,24.84
2023-01-13T14:03:58.322Z,24.85
2023-01-13T14:06:24.651Z,24.82
2023-01-13T14:08:51.323Z,24.89
2023-01-13T14:11:17.601Z,24.80
2023-01-13T14:13:44.010Z,24.74
2023-01-13T14:16:10.462Z,24.69
2023-01-13T14:18:36.849Z,24.86
2023-01-13T14:21:03.172Z,24.97
2023-01-13T14:23:29.552Z,24.92
2023-01-13T14:25:55.944Z,24.91
2023-01-13T14:28:22.365Z,24.83
2023-01-13T14:30:48.804Z,24.88
2023-01-13T14:33:15.148Z,24.85
2023-01-13T14:35:41.613Z,24.83
2023-01-13T14:38:07.949Z,24.74
2023-01-13T14:40:34.390Z,24.71
2023-01-13T14:43:00.722Z,24.68
2023-01-13T14:45:27.050Z,24.73
2023-01-13T14:47:53.523Z,24.73
2023-01-13T14:50:19.886Z,24.72
2023-01-13T14:52:46.277Z,24.79
2023-01-13T14:55:12.596Z,24.69
2023-01-13T14:57:38.981Z,24.63
2023-01-13T15:00:05.327Z,24.56
2023-01-13T15:02:33.467Z,24.54
2023-01-13T15:04:58.250Z,24.59
2023-01-13T15:07:24.646Z,24.61
2023-01-13T15:09:50.990Z,24.61
2023-01-13T15:12:17.371Z,24.53
2023-01-13T15:14:43.809Z,24.55
2023-01-13T15:17:10.320Z,24.53
2023-01-13T15:19:36.688Z,24.49
2023-01-13T15:22:03.112Z,24.49
2023-01-13T15:24:29.457Z,24.49
2023-01-13T15:26:55.923Z,24.47
2023-01-13T15:29:23.749Z,24.50
2023-01-13T15:31:48.827Z,24.54
2023-01-13T15:34:15.215Z,24.49
2023-01-13T15:36:41.585Z,24.51
2023-01-13T15:39:07.925Z,24.51
2023-01-13T15:41:34.304Z,24.48
2023-01-13T15:44:00.699Z,24.48
2023-01-13T15:46:27.102Z,24.42
2023-01-13T15:48:54.801Z,24.43
2023-01-13T15:51:19.877Z,24.46
2023-01-13T15:53:47.446Z,24.49
2023-01-13T15:56:12.648Z,24.42
2023-01-13T15:58:39.115Z,24.31
2023-01-13T16:01:05.719Z,24.35
2023-01-13T16:03:31.875Z,24.36
2023-01-13T16:05:58.271Z,24.35
2023-01-13T16:08:24.706Z,24.32
2023-01-13T16:10:53.052Z,24.28
2023-01-13T16:13:17.643Z,24.21
2023-01-13T16:15:44.107Z,24.17
2023-01-13T16:18:10.449Z,24.16
2023-01-13T16:20:36.849Z,24.16
2023-01-13T16:23:03.190Z,24.14
2023-01-13T16:25:29.748Z,24.13
2023-01-13T16:27:56.143Z,24.13
2023-01-13T16:30:22.523Z,24.10
2023-01-13T16:32:50.096Z,24.09
2023-01-13T16:35:15.387Z,24.12
2023-01-13T16:37:41.720Z,24.19
2023-01-13T16:40:08.104Z,24.19
2023-01-13T16:42:34.445Z,24.20
2023-01-13T16:45:00.839Z,24.17
2023-01-13T16:47:28.281Z,24.21
2023-01-13T16:49:53.562Z,24.18
2023-01-13T16:52:19.956Z,24.17
2023-01-13T16:54:46.359Z,24.13
2023-01-13T16:57:12.707Z,24.12
2023-01-13T16:59:39.104Z,24.17
2023-01-13T17:02:05.440Z,24.13
2023-01-13T17:04:31.820Z,24.10
2023-01-13T17:06:58.167Z,24.10
2023-01-13T17:09:24.710Z,24.12
2023-01-13T17:11:51.037Z,24.10
2023-01-13T17:14:19.306Z,24.11
2023-01-13T17:16:43.800Z,24.08
2023-01-13T17:19:10.231Z,24.03
2023-01-13T17:21:36.618Z,24.01
2023-01-13T17:24:03.020Z,24.02
2023-01-13T17:26:30.376Z,24.03
2023-01-13T17:28:55.823Z,24.02
2023-01-13T17:31:22.251Z,24.02
2023-01-13T17:33:48.654Z,24.03
2023-01-13T17:36:14.983Z,24.03
2023-01-13T17:38:41.371Z,24.01
2023-01-13T17:41:07.711Z,24.02
2023-01-13T17:43:34.117Z,23.99
2023-01-13T17:46:00.488Z,23.99
2023-01-13T17:48:26.836Z,23.99
2023-01-13T17:50:53.256Z,23.96
2023-01-13T17:53:19.647Z,23.86
2023-01-13T17:55:45.987Z,23.97
2023-01-13T17:58:12.384Z,23.95
2023-01-13T18:00:38.780Z,23.84
2023-01-13T18:03:05.244Z,23.81
2023-01-13T18:05:33.128Z,23.89
2023-01-13T18:07:58.024Z,23.90
2023-01-13T18:10:24.391Z,23.90
2023-01-13T18:12:50.835Z,23.92
2023-01-13T18:15:17.324Z,23.92
2023-01-13T18:17:47.268Z,23.90
2023-01-13T18:20:12.233Z,23.88
2023-01-13T18:22:38.624Z,23.91
2023-01-13T18:25:04.951Z,23.86
2023-01-13T18:27:31.475Z,23.84
2023-01-13T18:29:57.990Z,23.84
2023-01-13T18:32:24.341Z,23.86
2023-01-13T18:35:01.656Z,23.83
2023-01-13T18:37:17.122Z,23.84
2023-01-13T18:39:43.468Z,23.85
2023-01-13T18:42:10.073Z,23.82
2023-01-13T18:44:36.417Z,23.85
2023-01-13T18:47:02.830Z,23.83
2023-01-13T18:49:29.181Z,23.79
2023-01-13T18:51:55.572Z,23.81
2023-01-13T18:54:21.929Z,23.76
2023-01-13T18:56:48.332Z,23.81
2023-01-13T18:59:14.674Z,23.81
2023-01-13T19:01:41.192Z,23.75
2023-01-13T19:04:07.417Z,23.77
2023-01-13T19:06:33.879Z,23.81
2023-01-13T19:09:00.194Z,23.76
2023-01-13T19:11:26.600Z,23.82
2023-01-13T19:13:52.939Z,23.83
2023-01-13T19:16:19.416Z,23.80
2023-01-13T19:18:45.740Z,23.76
2023-01-13T19:21:12.253Z,23.79
2023-01-13T19:23:38.717Z,23.75
2023-01-13T19:26:05.016Z,23.77
2023-01-13T19:28:31.598Z,23.75
2023-01-13T19:30:57.941Z,23.77
2023-01-13T19:33:24.319Z,23.75
2023-01-13T19:35:50.654Z,23.77
2023-01-13T19:38:17.045Z,23.73
2023-01-13T19:40:43.433Z,23.70
2023-01-13T19:43:09.926Z,23.68
2023-01-13T19:45:36.332Z,23.71
2023-01-13T19:48:02.727Z,23.73
2023-01-13T19:50:29.149Z,23.57
2023-01-13T19:52:55.544Z,23.47
2023-01-13T19:55:21.914Z,23.47
2023-01-13T19:57:48.320Z,23.45
2023-01-13T20:00:14.695Z,23.43
2023-01-13T20:02:41.095Z,23.44
2023-01-13T20:05:07.441Z,23.42
2023-01-13T20:07:33.833Z,23.42
2023-01-13T20:10:00.227Z,23.40
2023-01-13T20:12:26.623Z,23.37
2023-01-13T20:14:52.969Z,23.39
2023-01-13T20:20:04.725Z,23.50
2023-01-13T20:22:31.106Z,23.51
2023-01-13T20:24:57.445Z,23.43
2023-01-13T20:27:23.897Z,23.38
2023-01-13T20:29:50.216Z,23.37
2023-01-13T20:32:16.597Z,23.42
2023-01-13T20:34:42.985Z,23.44
2023-01-13T20:37:09.368Z,23.44
2023-01-13T20:39:35.745Z,23.41
2023-01-13T20:42:02.140Z,23.37
2023-01-13T20:44:28.479Z,23.42
2023-01-13T20:46:54.943Z,23.32
2023-01-13T20:49:21.237Z,23.30
2023-01-13T20:51:47.634Z,23.28
2023-01-13T20:54:14.007Z,23.30
2023-01-13T20:56:40.482Z,23.36
2023-01-13T20:59:06.853Z,23.36
2023-01-13T21:01:33.263Z,23.38
2023-01-13T21:03:59.624Z,23.35
2023-01-13T21:06:25.958Z,23.36
2023-01-13T21:08:52.320Z,23.36
2023-01-13T21:11:18.755Z,23.26
2023-01-13T21:13:45.071Z,23.22
2023-01-13T21:16:11.479Z,23.25
2023-01-13T21:18:37.800Z,23.27
2023-01-13T21:21:04.255Z,23.31
2023-01-13T21:23:30.638Z,23.29
2023-01-13T21:25:57.064Z,23.30
2023-01-13T21:28:23.396Z,23.27
2023-01-13T21:30:49.872Z,23.28
2023-01-13T21:33:16.245Z,23.27
2023-01-13T21:35:42.626Z,23.27
2023-01-13T21:38:08.984Z,23.25
2023-01-13T21:40:35.389Z,23.26
2023-01-13T21:43:03.323Z,23.25
2023-01-13T21:45:28.251Z,23.23
2023-01-13T21:47:54.589Z,23.21
2023-01-13T21:50:21.050Z,23.22
2023-01-13T21:52:47.544Z,23.23
2023-01-13T21:55:13.922Z,23.23
2023-01-13T21:57:40.382Z,23.23
2023-01-13T22:00:06.799Z,23.21
2023-01-13T22:02:33.242Z,23.22
2023-01-13T22:04:59.587Z,23.17
2023-01-13T22:07:25.975Z,23.21
2023-01-13T22:09:52.367Z,23.17
2023-01-13T22:12:18.758Z,23.18
2023-01-13T22:14:45.158Z,23.17
2023-01-13T22:17:11.498Z,23.14
2023-01-13T22:19:37.962Z,23.17
2023-01-13T22:22:04.343Z,23.15
2023-01-13T22:24:30.724Z,23.13
2023-01-13T22:26:57.077Z,23.12
2023-01-13T22:29:23.503Z,23.11
2023-01-13T22:31:49.885Z,23.13
2023-01-13T22:34:16.373Z,23.13
2023-01-13T22:36:42.755Z,23.07
2023-01-13T22:39:09.191Z,23.07
2023-01-13T22:41:35.475Z,23.07
2023-01-13T22:44:02.006Z,23.07
2023-01-13T22:46:28.348Z,23.07
2023-01-13T22:48:54.834Z,23.01
2023-01-13T22:51:21.177Z,23.03
2023-01-13T22:53:47.565Z,23.08
2023-01-13T22:56:14.086Z,23.08
2023-01-13T22:58:40.525Z,23.05
2023-01-13T23:01:06.925Z,23.03
2023-01-13T23:03:33.387Z,23.06
2023-01-13T23:05:59.695Z,23.01
2023-01-13T23:08:26.126Z,23.01
2023-01-13T23:10:52.490Z,23.03
2023-01-13T23:13:18.888Z,23.02
2023-01-13T23:15:45.285Z,23.03
2023-01-13T23:18:11.761Z,23.03
2023-01-13T23:20:38.136Z,23.01
2023-01-13T23:23:04.512Z,22.98
2023-01-13T23:25:30.863Z,23.00
2023-01-13T23:27:57.261Z,23.01
2023-01-13T23:30:23.601Z,23.02
2023-01-13T23:32:49.990Z,23.01
2023-01-13T23:35:16.449Z,22.98
2023-01-13T23:37:42.966Z,23.02
2023-01-13T23:40:09.389Z,22.98
2023-01-13T23:42:35.764Z,22.97
2023-01-13T23:45:02.116Z,22.98
2023-01-13T23:47:28.495Z,22.98
2023-01-13T23:49:54.836Z,22.99
2023-01-13T23:52:21.225Z,22.99
2023-01-13T23:54:47.664Z,22.92
2023-01-13T23:57:14.052Z,22.92
2023-01-13T23:59:40.421Z,22.93
